Burgtor — V2OR7 — position and weather

sailwx.info

Track history (hours):
 
Tides and Currents Weather Stations Pressure Air Temp Water Temp Dewpoint Dewpoint Depression Visibility Wind Speed Wind Dir Waves Ship Positions

Burgtor

Last reported at 2014-Oct-31 02:13 UTC. Time now 2014-Nov-01 13:24 UTC.
Position N 45°04' W 005°49'.

Length 87 m; draft 4.7 m.

Type: Cargo ship. MMSI: 304665000.

Date/timePositionNaut miles runAvg speedWind from/ knotsBaromVisibWave heightAir tempDewpointWater temp
2014-Oct-31 02:13N 45°04' W 005°49'7 9.7
2014-Oct-31 01:33N 44°57' W 005°48'80 9.8
2014-Oct-30 17:21N 43°37' W 005°40'4 0.6
2014-Oct-30 11:32N 43°34' W 005°42'0 0.0
2014-Oct-30 03:20N 43°34' W 005°42'0 0.0
2014-Oct-30 02:20N 43°34' W 005°42'0 0.0
2014-Oct-30 00:14N 43°34' W 005°42'0 0.0
2014-Oct-29 22:26N 43°34' W 005°42'0 0.0
2014-Oct-29 14:13N 43°34' W 005°42'0 0.0
2014-Oct-29 13:31N 43°34' W 005°42'0 0.0
2014-Oct-29 09:19N 43°34' W 005°42'0 0.0
2014-Oct-29 05:31N 43°34' W 005°42'0 0.0
2014-Oct-29 03:31N 43°34' W 005°42'0 0.0
2014-Oct-29 02:07N 43°34' W 005°42'0 0.0
2014-Oct-29 01:25N 43°34' W 005°42'0 0.0
2014-Oct-29 00:31N 43°34' W 005°42'0 0.0
2014-Oct-28 23:31N 43°34' W 005°42'0 0.0
2014-Oct-28 22:25N 43°34' W 005°42'5 4.5
2014-Oct-28 21:22N 43°37' W 005°37'810.0
2014-Oct-28 20:33N 43°43' W 005°31'180 9.9
2014-Oct-28 02:15N 46°18' W 003°19'7 9.4
2014-Oct-28 01:33N 46°23' W 003°14'11 9.7
2014-Oct-28 00:28N 46°32' W 003°06'10 9.7
2014-Oct-27 23:29N 46°41' W 002°60'1410.2
2014-Oct-27 22:08N 46°53' W 002°49'710.6
2014-Oct-27 21:28N 46°58' W 002°43'28 2.5
2014-Oct-27 10:21N 47°17' W 002°12'0 0.0
2014-Oct-27 09:27N 47°17' W 002°12'0 0.0
2014-Oct-27 07:33N 47°17' W 002°12'0 0.0
2014-Oct-27 06:33N 47°17' W 002°12'0 0.0
2014-Oct-27 05:25N 47°17' W 002°12'1 1.2
2014-Oct-27 04:33N 47°16' W 002°12'8 7.9
2014-Oct-27 03:32N 47°10' W 002°19'7 1.2
2014-Oct-26 21:17N 47°04' W 002°27'176 9.7
2014-Oct-26 03:09N 44°37' W 004°45'75 9.8
2014-Oct-25 19:31N 43°34' W 005°41'1 0.6
2014-Oct-25 18:26N 43°34' W 005°42'0 0.0
2014-Oct-25 17:32N 43°34' W 005°42'0 0.0
2014-Oct-25 14:26N 43°34' W 005°42'0 0.0
2014-Oct-25 13:08N 43°34' W 005°42'0 0.0
2014-Oct-25 12:32N 43°34' W 005°42'0 0.0
2014-Oct-25 11:20N 43°34' W 005°42'0 0.0
2014-Oct-25 10:32N 43°34' W 005°42'0 0.0
2014-Oct-25 09:26N 43°34' W 005°42'0 0.0
2014-Oct-25 08:14N 43°34' W 005°42'0 0.0
2014-Oct-25 07:32N 43°34' W 005°42'0 0.0
2014-Oct-25 06:32N 43°34' W 005°42'0 0.0
2014-Oct-25 05:32N 43°34' W 005°42'0 0.0
2014-Oct-25 04:32N 43°34' W 005°42'0 0.0
2014-Oct-25 03:26N 43°34' W 005°42'0 0.0
2014-Oct-25 02:26N 43°34' W 005°42'0 0.0
2014-Oct-25 01:20N 43°34' W 005°42'0 0.0
2014-Oct-25 00:32N 43°34' W 005°42'0 0.0
2014-Oct-24 23:20N 43°34' W 005°42'0 0.0
2014-Oct-24 17:31N 43°34' W 005°42'2 0.7
2014-Oct-24 14:10N 43°36' W 005°41'0 0.0
2014-Oct-24 13:28N 43°36' W 005°41'0 0.0
2014-Oct-24 03:16N 43°36' W 005°41'0 0.0
2014-Oct-23 23:15N 43°36' W 005°41'0 0.0
2014-Oct-23 22:03N 43°36' W 005°41'0 0.1
2014-Oct-23 21:33N 43°36' W 005°41'0 0.0
2014-Oct-23 19:33N 43°36' W 005°41'0 0.0
2014-Oct-23 18:27N 43°36' W 005°41'0 0.0
2014-Oct-23 17:33N 43°36' W 005°41'0 0.0
2014-Oct-23 13:15N 43°36' W 005°41'0 0.0
2014-Oct-23 08:21N 43°36' W 005°41'0 0.0
2014-Oct-23 07:27N 43°36' W 005°41'0 0.0
2014-Oct-23 05:21N 43°36' W 005°41'0 0.0
2014-Oct-23 04:33N 43°36' W 005°41'0 0.0
2014-Oct-23 02:21N 43°36' W 005°41'0 0.0
2014-Oct-23 00:27N 43°36' W 005°41'0 0.0
2014-Oct-22 23:09N 43°36' W 005°41'0 0.0
2014-Oct-22 22:15N 43°36' W 005°41'0 0.0
2014-Oct-22 20:33N 43°36' W 005°41'0 0.0
2014-Oct-22 17:21N 43°36' W 005°41'0 0.0
2014-Oct-22 15:21N 43°36' W 005°41'0 0.0
2014-Oct-22 09:14N 43°36' W 005°41'  
Track history (hours):
 
Tides and Currents Weather Stations Pressure Air Temp Water Temp Dewpoint Dewpoint Depression Visibility Wind Speed Wind Dir Waves Ship Positions

Burgtor

Last reported at 2014-Oct-31 02:13 UTC. Time now 2014-Nov-01 13:24 UTC.
Position N 45°04' W 005°49'.

Length 87 m; draft 4.7 m.

Type: Cargo ship. MMSI: 304665000.

Date/timePositionNaut miles runAvg speedWind from/ knotsBaromVisibWave heightAir tempDewpointWater temp
2014-Oct-31 02:13N 45°04' W 005°49'7 9.7
2014-Oct-31 01:33N 44°57' W 005°48'80 9.8
2014-Oct-30 17:21N 43°37' W 005°40'4 0.6
2014-Oct-30 11:32N 43°34' W 005°42'0 0.0
2014-Oct-30 03:20N 43°34' W 005°42'0 0.0
2014-Oct-30 02:20N 43°34' W 005°42'0 0.0
2014-Oct-30 00:14N 43°34' W 005°42'0 0.0
2014-Oct-29 22:26N 43°34' W 005°42'0 0.0
2014-Oct-29 14:13N 43°34' W 005°42'0 0.0
2014-Oct-29 13:31N 43°34' W 005°42'0 0.0
2014-Oct-29 09:19N 43°34' W 005°42'0 0.0
2014-Oct-29 05:31N 43°34' W 005°42'0 0.0
2014-Oct-29 03:31N 43°34' W 005°42'0 0.0
2014-Oct-29 02:07N 43°34' W 005°42'0 0.0
2014-Oct-29 01:25N 43°34' W 005°42'0 0.0
2014-Oct-29 00:31N 43°34' W 005°42'0 0.0
2014-Oct-28 23:31N 43°34' W 005°42'0 0.0
2014-Oct-28 22:25N 43°34' W 005°42'5 4.5
2014-Oct-28 21:22N 43°37' W 005°37'810.0
2014-Oct-28 20:33N 43°43' W 005°31'180 9.9
2014-Oct-28 02:15N 46°18' W 003°19'7 9.4
2014-Oct-28 01:33N 46°23' W 003°14'11 9.7
2014-Oct-28 00:28N 46°32' W 003°06'10 9.7
2014-Oct-27 23:29N 46°41' W 002°60'1410.2
2014-Oct-27 22:08N 46°53' W 002°49'710.6
2014-Oct-27 21:28N 46°58' W 002°43'28 2.5
2014-Oct-27 10:21N 47°17' W 002°12'0 0.0
2014-Oct-27 09:27N 47°17' W 002°12'0 0.0
2014-Oct-27 07:33N 47°17' W 002°12'0 0.0
2014-Oct-27 06:33N 47°17' W 002°12'0 0.0
2014-Oct-27 05:25N 47°17' W 002°12'1 1.2
2014-Oct-27 04:33N 47°16' W 002°12'8 7.9
2014-Oct-27 03:32N 47°10' W 002°19'7 1.2
2014-Oct-26 21:17N 47°04' W 002°27'176 9.7
2014-Oct-26 03:09N 44°37' W 004°45'75 9.8
2014-Oct-25 19:31N 43°34' W 005°41'1 0.6
2014-Oct-25 18:26N 43°34' W 005°42'0 0.0
2014-Oct-25 17:32N 43°34' W 005°42'0 0.0
2014-Oct-25 14:26N 43°34' W 005°42'0 0.0
2014-Oct-25 13:08N 43°34' W 005°42'0 0.0
2014-Oct-25 12:32N 43°34' W 005°42'0 0.0
2014-Oct-25 11:20N 43°34' W 005°42'0 0.0
2014-Oct-25 10:32N 43°34' W 005°42'0 0.0
2014-Oct-25 09:26N 43°34' W 005°42'0 0.0
2014-Oct-25 08:14N 43°34' W 005°42'0 0.0
2014-Oct-25 07:32N 43°34' W 005°42'0 0.0
2014-Oct-25 06:32N 43°34' W 005°42'0 0.0
2014-Oct-25 05:32N 43°34' W 005°42'0 0.0
2014-Oct-25 04:32N 43°34' W 005°42'0 0.0
2014-Oct-25 03:26N 43°34' W 005°42'0 0.0
2014-Oct-25 02:26N 43°34' W 005°42'0 0.0
2014-Oct-25 01:20N 43°34' W 005°42'0 0.0
2014-Oct-25 00:32N 43°34' W 005°42'0 0.0
2014-Oct-24 23:20N 43°34' W 005°42'0 0.0
2014-Oct-24 17:31N 43°34' W 005°42'2 0.7
2014-Oct-24 14:10N 43°36' W 005°41'0 0.0
2014-Oct-24 13:28N 43°36' W 005°41'0 0.0
2014-Oct-24 03:16N 43°36' W 005°41'0 0.0
2014-Oct-23 23:15N 43°36' W 005°41'0 0.0
2014-Oct-23 22:03N 43°36' W 005°41'0 0.1
2014-Oct-23 21:33N 43°36' W 005°41'0 0.0
2014-Oct-23 19:33N 43°36' W 005°41'0 0.0
2014-Oct-23 18:27N 43°36' W 005°41'0 0.0
2014-Oct-23 17:33N 43°36' W 005°41'0 0.0
2014-Oct-23 13:15N 43°36' W 005°41'0 0.0
2014-Oct-23 08:21N 43°36' W 005°41'0 0.0
2014-Oct-23 07:27N 43°36' W 005°41'0 0.0
2014-Oct-23 05:21N 43°36' W 005°41'0 0.0
2014-Oct-23 04:33N 43°36' W 005°41'0 0.0
2014-Oct-23 02:21N 43°36' W 005°41'0 0.0
2014-Oct-23 00:27N 43°36' W 005°41'0 0.0
2014-Oct-22 23:09N 43°36' W 005°41'0 0.0
2014-Oct-22 22:15N 43°36' W 005°41'0 0.0
2014-Oct-22 20:33N 43°36' W 005°41'0 0.0
2014-Oct-22 17:21N 43°36' W 005°41'0 0.0
2014-Oct-22 15:21N 43°36' W 005°41'0 0.0
2014-Oct-22 09:14N 43°36' W 005°41'  

Dump ship's entire track history